Center Point, AL (35215)

1:06 PM CDT on May 27, 2015 (GMT -0500)
Paradise Valley | | Change Station
CLOSE
Current Station
Personal Weather Station
Location: Chalkville, AL
Elevation: 856 ft
Nearby Weather Stations

Elev 856 ft 33.67 °N, 86.65 °W | Updated 20 seconds ago

Overcast
Overcast
79.8 °F
Feels Like 83 °F
N
3.0
Wind Variable Wind from ENE
Gusts 3.0 mph

Today
High -- | Low -- °F
--% Chance of Precip.
Yesterday
High -- | Low -- °F
Precip. -- in
5:39 AM 7:48 PM
Waxing Gibbous, 69% visible
Pressure 30.18 in
Visibility 10.0 miles
Clouds Mostly Cloudy 2700 ft
Mostly Cloudy 3200 ft
Heat Index 83 °F
Dew Point 71 °F
Humidity 74%
Rainfall 0.00 in
Snow Depth Not available.
UV 7 out of 12
Pollen .70 out of 12
Air Quality Not available.
Flu Activity Sporadic
METAR KBHM 271753Z 13004KT 10SM BKN027 BKN032 27/21 A3021 RMK AO2 SLP220 T02670206 10267 20206 58009

More Conditions Fewer Conditions

Pressure 30.18 in
Visibility 10.0 miles
Clouds Mostly Cloudy 2700 ft
Mostly Cloudy 3200 ft
Heat Index 83 °F
Dew Point 71 °F
Humidity 74%
Rainfall 0.00 in
Snow Depth Not available.
UV 7 out of 12
Pollen .70 out of 12
Air Quality Not available.
Flu Activity Sporadic
METAR KBHM 271753Z 13004KT 10SM BKN027 BKN032 27/21 A3021 RMK AO2 SLP220 T02670206 10267 20206 58009

More Conditions Fewer Conditions

10-Day Weather Forecast

Almanac

Astronomy

May. 27, 2015 Rise Set
Actual Time
Civil Twilight
Nautical Twilight
Astronomical Twilight
Moon
Length of Visible Light
Length of Day
Tomorrow will be .
, % of the Moon is Illuminated

Today's Extremes

State Highs State Lows

Community

WunderPhotos

Upload Photos

1,824,736 photos uploaded!

WunderBlogs® & News

Nearby

Air Quality

  Air Quality AQ Index Pollutant
Not available.

Snow Depth

Station Depth Elevation

Earthquake Activity

City Distance Mag. Time & Date
Minimum magnitude displayed is 2.5.

Coastal Water Temperatures

Place Temperature

Stations

Nearby Weather Stations

Station Location Temp. Windchill Dew Point Humidity Wind Precip. Elev Updated Type